Gary, IN

9:14 AM CST on January 26, 2015 (GMT -0600)
APRSWXNET Hobart IN US | Change Station
CLOSE
Current Station
Personal Weather Station
Location: Hobart, IN
Elevation: 633 ft
Nearby Weather Stations

Elev 633 ft 41.51 °N, 87.25 °W | Updated 58 minutes ago

Partly Cloudy
Partly Cloudy
13 °F
Feels Like 13 °F
N
0
Wind Variable Wind from ESE
Gusts 0.0 mph

Today
High -- | Low -- °F
--% Chance of Precip.
Yesterday
High -- | Low -- °F
Precip. -- in
7:06 AM 4:57 PM
Waxing Crescent, 44% visible
Pressure 29.98 in
Visibility 10.0 miles
Clouds Scattered Clouds 20000 ft
Windchill 13 °F
Dew Point 2 °F
Humidity 62%
Rainfall 0.08 in
Snow Depth Not available.
UV 1 out of 12
Pollen .10 out of 12
Air Quality Not available.
Flu Activity Not available.
METAR KGYY 261445Z 16007KT 10SM SCT200 M07/M13 A2998

More Conditions Fewer Conditions

Pressure 29.98 in
Visibility 10.0 miles
Clouds Scattered Clouds 20000 ft
Windchill 13 °F
Dew Point 2 °F
Humidity 62%
Rainfall 0.08 in
Snow Depth Not available.
UV 1 out of 12
Pollen .10 out of 12
Air Quality Not available.
Flu Activity Not available.
METAR KGYY 261445Z 16007KT 10SM SCT200 M07/M13 A2998

More Conditions Fewer Conditions

10-Day Weather Forecast

Almanac

Astronomy

Jan. 26, 2015 Rise Set
Actual Time
Civil Twilight
Nautical Twilight
Astronomical Twilight
Moon
Length of Visible Light
Length of Day
Tomorrow will be .
, % of the Moon is Illuminated

Today's Extremes

State Highs State Lows

Community

WunderPhotos

Upload Photos

1,790,234 photos uploaded!

WunderBlogs® & News

Nearby

Air Quality

  Air Quality AQ Index Pollutant
Not available.

Snow Depth

Station Depth Elevation

Earthquake Activity

City Distance Mag. Time & Date
Minimum magnitude displayed is 2.5.

Coastal Water Temperatures

Place Temperature

Nearby Weather Stations